Data Viewer
| City | State | Eastern Time | Source | Temp | DewPt | RH | BP | 5 Min Precip | Wind Speed | Wind Dir | 5 Min Wind Max | 5 Min Wind Max Dir |
|---|---|---|---|---|---|---|---|---|---|---|---|---|
| Millville | NJ | 2026-05-07 17:05 | ASOS | 63 | 39 | 42 | 29.77 | 0.00 | 3 | E | ||
| Millville | NJ | 2026-05-08 09:35 | ASOS | 57 | 34 | 41 | 29.98 | 0.00 | 8 | WNW | ||
| Millville | NJ | 2026-05-08 10:00 | ASOS | 59 | 34 | 39 | 29.97 | 0.00 | 7 | W | ||
| Millville | NJ | 2026-05-08 09:55 | ASOS | 57 | 34 | 41 | 29.97 | 0.00 | 3 | SW | ||
| Millville | NJ | 2026-05-08 09:54 | ASOS | 58 | 33 | 39 | 29.97 | 6 | WSW | |||
| Millville | NJ | 2026-05-08 09:50 | ASOS | 57 | 34 | 41 | 29.97 | 0.00 | 5 | NNW | ||
| Millville | NJ | 2026-05-08 09:45 | ASOS | 57 | 34 | 41 | 29.97 | 0.00 | 5 | WNW | ||
| Millville | NJ | 2026-05-08 09:40 | ASOS | 57 | 32 | 38 | 29.98 | 0.00 | 0 | N | ||
| Millville | NJ | 2026-05-08 09:30 | ASOS | 57 | 35 | 44 | 29.98 | 0.00 | 8 | W | ||
| Millville | NJ | 2026-05-08 10:10 | ASOS | 59 | 30 | 33 | 29.97 | 0.00 | ||||
| Millville | NJ | 2026-05-08 09:25 | ASOS | 57 | 34 | 41 | 29.98 | 0.00 | 7 | W | ||
| Millville | NJ | 2026-05-08 09:20 | ASOS | 57 | 34 | 41 | 29.98 | 0.00 | 7 | NW | ||
| Millville | NJ | 2026-05-08 09:15 | ASOS | 57 | 34 | 41 | 29.98 | 0.00 | 8 | WNW | ||
| Millville | NJ | 2026-05-08 09:10 | ASOS | 55 | 34 | 44 | 29.98 | 0.00 | 6 | N | ||
| Millville | NJ | 2026-05-08 09:05 | ASOS | 55 | 34 | 44 | 29.98 | 0.00 | 7 | NW | ||
| Millville | NJ | 2026-05-08 09:00 | ASOS | 55 | 35 | 47 | 29.97 | 0.00 | 6 | NW | ||
| Millville | NJ | 2026-05-08 08:55 | ASOS | 55 | 35 | 47 | 29.97 | 0.00 | 7 | NW | ||
| Millville | NJ | 2026-05-08 10:05 | ASOS | 59 | 32 | 36 | 29.97 | 0.00 | 5 | WSW | ||
| Millville | NJ | 2026-05-08 10:20 | ASOS | 61 | 30 | 31 | 29.97 | 0.00 | 7 | NW | ||
| Millville | NJ | 2026-05-08 08:50 | ASOS | 55 | 35 | 47 | 29.97 | 0.00 | 8 | NW | ||
| Millville | NJ | 2026-05-08 11:05 | ASOS | 61 | 32 | 34 | 29.96 | 0.00 | 8 | WSW | ||
| Millville | NJ | 2026-05-08 11:40 | ASOS | 63 | 32 | 32 | 29.96 | 0.00 | 12 | WSW | ||
| Millville | NJ | 2026-05-08 11:35 | ASOS | 63 | 30 | 29 | 29.96 | 0.00 | 9 | W | ||
| Millville | NJ | 2026-05-08 11:30 | ASOS | 63 | 34 | 34 | 29.96 | 0.00 | 12 | WNW | ||
| Millville | NJ | 2026-05-08 11:25 | ASOS | 63 | 34 | 34 | 29.96 | 0.00 | 8 | WSW | ||
| Millville | NJ | 2026-05-08 11:20 | ASOS | 63 | 35 | 36 | 29.96 | 0.00 | 14 | WSW | ||
| Millville | NJ | 2026-05-08 11:15 | ASOS | 63 | 35 | 36 | 29.96 | 0.00 | 10 | WSW | ||
| Millville | NJ | 2026-05-08 11:10 | ASOS | 61 | 34 | 36 | 29.96 | 0.00 | 10 | WSW | ||
| Millville | NJ | 2026-05-08 11:00 | ASOS | 61 | 30 | 31 | 29.96 | 0.00 | 3 | NW | ||
| Millville | NJ | 2026-05-08 10:25 | ASOS | 59 | 32 | 36 | 29.97 | 0.00 | ||||
| Millville | NJ | 2026-05-08 10:55 | ASOS | 61 | 30 | 31 | 29.96 | 0.00 | 8 | WNW | ||
| Millville | NJ | 2026-05-08 10:54 | ASOS | 60 | 31 | 33 | 29.96 | 7 | ||||
| Millville | NJ | 2026-05-08 10:50 | ASOS | 61 | 30 | 31 | 29.97 | 0.00 | 8 | W | ||
| Millville | NJ | 2026-05-08 10:45 | ASOS | 61 | 30 | 31 | 29.97 | 0.00 | 10 | WSW | ||
| Millville | NJ | 2026-05-08 10:40 | ASOS | 61 | 30 | 31 | 29.97 | 0.00 | 7 | WNW | ||
| Millville | NJ | 2026-05-08 10:35 | ASOS | 61 | 30 | 31 | 29.97 | 0.00 | 8 | W | ||
| Millville | NJ | 2026-05-08 10:30 | ASOS | 61 | 32 | 34 | 29.97 | 0.00 | 10 | W | ||
| Millville | NJ | 2026-05-08 08:54 | ASOS | 55 | 35 | 47 | 29.97 | 6 | NW | |||
| Millville | NJ | 2026-05-08 08:45 | ASOS | 55 | 35 | 47 | 29.97 | 0.00 | 7 | NNW | ||
| Millville | NJ | 2026-05-08 11:50 | ASOS | 64 | 34 | 32 | 29.96 | 0.00 | 13 | W | ||
| Millville | NJ | 2026-05-08 06:30 | ASOS | 45 | 39 | 81 | 29.95 | 0.00 | 0 | N | ||
| Millville | NJ | 2026-05-08 07:00 | ASOS | 48 | 39 | 71 | 29.95 | 0.00 | 0 | N | ||
| Millville | NJ | 2026-05-08 06:54 | ASOS | 48 | 40 | 73 | 29.94 | 0 | N | |||
| Millville | NJ | 2026-05-08 06:50 | ASOS | 48 | 39 | 71 | 29.94 | 0.00 | 0 | N | ||
| Millville | NJ | 2026-05-08 06:45 | ASOS | 46 | 39 | 76 | 29.94 | 0.00 | 0 | N | ||
| Millville | NJ | 2026-05-08 06:40 | ASOS | 46 | 39 | 76 | 29.94 | 0.00 | 3 | NNW | ||
| Millville | NJ | 2026-05-08 06:35 | ASOS | 45 | 39 | 81 | 29.95 | 0.00 | 0 | N | ||
| Millville | NJ | 2026-05-08 06:25 | ASOS | 45 | 39 | 81 | 29.95 | 0.00 | 3 | NW | ||
| Millville | NJ | 2026-05-08 07:10 | ASOS | 50 | 39 | 66 | 29.95 | 0.00 | 3 | WNW | ||
| Millville | NJ | 2026-05-08 06:20 | ASOS | 43 | 39 | 87 | 29.95 | 0.00 | 3 | NW | ||
| Millville | NJ | 2026-05-08 06:15 | ASOS | 43 | 37 | 81 | 29.94 | 0.00 | 5 | WNW | ||
| Millville | NJ | 2026-05-08 06:10 | ASOS | 43 | 37 | 81 | 29.94 | 0.00 | 6 | WNW | ||
| Millville | NJ | 2026-05-08 06:05 | ASOS | 45 | 37 | 76 | 29.94 | 0.00 | 6 | WNW | ||
| Millville | NJ | 2026-05-08 06:00 | ASOS | 46 | 37 | 71 | 29.93 | 0.00 | 6 | WNW | ||
| Millville | NJ | 2026-05-08 05:54 | ASOS | 48 | 39 | 71 | 29.92 | 6 | NW | |||
| Millville | NJ | 2026-05-08 05:50 | ASOS | 48 | 37 | 66 | 29.92 | 0.00 | 6 | NW | ||
| Millville | NJ | 2026-05-08 07:05 | ASOS | 48 | 39 | 71 | 29.95 | 0.00 | 0 | N | ||
| Millville | NJ | 2026-05-08 07:15 | ASOS | 50 | 39 | 66 | 29.96 | 0.00 | 3 | WNW | ||
| Millville | NJ | 2026-05-08 08:40 | ASOS | 55 | 37 | 51 | 29.97 | 0.00 | 7 | NW | ||
| Millville | NJ | 2026-05-08 08:00 | ASOS | 54 | 39 | 58 | 29.96 | 0.00 | 6 | NNW | ||
| Millville | NJ | 2026-05-08 08:35 | ASOS | 55 | 37 | 51 | 29.97 | 0.00 | 8 | NNW | ||
| Millville | NJ | 2026-05-08 08:30 | ASOS | 54 | 37 | 54 | 29.98 | 0.00 | 7 | NW | ||
| Millville | NJ | 2026-05-08 08:25 | ASOS | 55 | 37 | 51 | 29.97 | 0.00 | 7 | NW | ||
| Millville | NJ | 2026-05-08 08:20 | ASOS | 54 | 39 | 58 | 29.97 | 0.00 | 6 | N | ||
| Millville | NJ | 2026-05-08 08:15 | ASOS | 54 | 39 | 58 | 29.97 | 0.00 | 6 | N | ||
| Millville | NJ | 2026-05-08 08:10 | ASOS | 54 | 39 | 58 | 29.97 | 0.00 | 7 | N | ||
| Millville | NJ | 2026-05-08 08:05 | ASOS | 54 | 39 | 58 | 29.97 | 0.00 | 7 | NNW | ||
| Millville | NJ | 2026-05-08 07:55 | ASOS | 54 | 41 | 62 | 29.96 | 0.00 | 3 | NNW | ||
| Millville | NJ | 2026-05-08 07:20 | ASOS | 50 | 41 | 71 | 29.96 | 0.00 | 5 | W | ||
| Millville | NJ | 2026-05-08 07:54 | ASOS | 53 | 40 | 61 | 29.96 | 3 | NNW | |||
| Millville | NJ | 2026-05-08 07:50 | ASOS | 52 | 41 | 66 | 29.96 | 0.00 | 3 | NW | ||
| Millville | NJ | 2026-05-08 07:45 | ASOS | 52 | 41 | 66 | 29.96 | 0.00 | 5 | NW | ||
| Millville | NJ | 2026-05-08 07:40 | ASOS | 52 | 39 | 62 | 29.96 | 0.00 | 5 | NW | ||
| Millville | NJ | 2026-05-08 07:35 | ASOS | 52 | 39 | 62 | 29.96 | 0.00 | 5 | WNW | ||
| Millville | NJ | 2026-05-08 07:30 | ASOS | 50 | 41 | 71 | 29.96 | 0.00 | 5 | WNW | ||
| Millville | NJ | 2026-05-08 07:25 | ASOS | 50 | 39 | 66 | 29.96 | 0.00 | 5 | WNW | ||
| Millville | NJ | 2026-05-08 11:45 | ASOS | 63 | 32 | 32 | 29.96 | 0.00 | 16 | W | ||
| Millville | NJ | 2026-05-08 11:54 | ASOS | 64 | 33 | 31 | 29.96 | 12 | W | |||
| Millville | NJ | 2026-05-08 05:40 | ASOS | 48 | 39 | 71 | 29.92 | 0.00 | 6 | NW | ||
| Millville | NJ | 2026-05-08 15:40 | ASOS | 64 | 39 | 39 | 29.90 | 0.00 | 8 | SSW | ||
| Millville | NJ | 2026-05-08 16:10 | ASOS | 66 | 37 | 35 | 29.89 | 0.00 | ||||
| Millville | NJ | 2026-05-08 16:05 | ASOS | 66 | 37 | 35 | 29.89 | 0.00 | ||||
| Millville | NJ | 2026-05-08 16:00 | ASOS | 66 | 37 | 35 | 29.89 | 0.00 | 7 | S | ||
| Millville | NJ | 2026-05-08 15:54 | ASOS | 66 | 38 | 36 | 29.89 | 7 | ||||
| Millville | NJ | 2026-05-08 15:50 | ASOS | 66 | 37 | 35 | 29.90 | 0.00 | 9 | S | ||
| Millville | NJ | 2026-05-08 15:45 | ASOS | 66 | 39 | 37 | 29.89 | 0.00 | 7 | SW | ||
| Millville | NJ | 2026-05-08 15:35 | ASOS | 64 | 37 | 37 | 29.90 | 0.00 | 6 | S | ||
| Millville | NJ | 2026-05-08 16:20 | ASOS | 66 | 37 | 35 | 29.89 | 0.00 | 6 | S | ||
| Millville | NJ | 2026-05-08 15:30 | ASOS | 66 | 35 | 32 | 29.90 | 0.00 | 9 | SW | ||
| Millville | NJ | 2026-05-08 15:25 | ASOS | 66 | 35 | 32 | 29.90 | 0.00 | 12 | WSW | ||
| Millville | NJ | 2026-05-08 15:20 | ASOS | 66 | 35 | 32 | 29.90 | 0.00 | 12 | SW | ||
| Millville | NJ | 2026-05-08 15:15 | ASOS | 66 | 34 | 30 | 29.90 | 0.00 | 6 | SW | ||
| Millville | NJ | 2026-05-08 15:10 | ASOS | 66 | 34 | 30 | 29.90 | 0.00 | 9 | WSW | ||
| Millville | NJ | 2026-05-08 15:05 | ASOS | 68 | 34 | 28 | 29.90 | 0.00 | 10 | SW | ||
| Millville | NJ | 2026-05-08 15:00 | ASOS | 70 | 36 | 28 | 29.90 | 0.00 | 12 | W | ||
| Millville | NJ | 2026-05-08 16:15 | ASOS | 66 | 37 | 35 | 29.89 | 0.00 | 7 | S | ||
| Millville | NJ | 2026-05-08 16:25 | ASOS | 66 | 37 | 35 | 29.88 | 0.00 | 8 | S | ||
| Millville | NJ | 2026-05-08 14:54 | ASOS | 67 | 34 | 29 | 29.91 | 14 | W | |||
| Millville | NJ | 2026-05-08 01:40 | ASOS | 0.00 | ||||||||
| Millville | NJ | 2026-05-08 15:55 | ASOS | 0.00 | ||||||||
| Millville | NJ | 2026-05-08 10:15 | ASOS | 0.00 | ||||||||
| Millville | NJ | 2026-05-08 06:55 | ASOS | 0.00 | ||||||||
| Millville | NJ | 2026-05-08 05:55 | ASOS | 0.00 | ||||||||
| Millville | NJ | 2026-05-08 03:00 | ASOS | 0.00 | ||||||||
| Millville | NJ | 2026-05-08 02:55 | ASOS | 0.00 | ||||||||
| Millville | NJ | 2026-05-08 01:55 | ASOS | 0.00 | ||||||||
| Millville | NJ | 2026-05-08 01:00 | ASOS | 0.00 | ||||||||
| Millville | NJ | 2026-05-08 16:30 | ASOS | 66 | 37 | 35 | 29.88 | 0.00 | 8 | S | ||
| Millville | NJ | 2026-05-08 00:55 | ASOS | 0.00 | ||||||||
| Millville | NJ | 2026-05-07 21:55 | ASOS | 0.00 | ||||||||
| Millville | NJ | 2026-05-08 16:54 | ASOS | 65 | 40 | 40 | 29.88 | 6 | ||||
| Millville | NJ | 2026-05-08 16:50 | ASOS | 64 | 39 | 39 | 29.88 | 0.00 | 6 | S | ||
| Millville | NJ | 2026-05-08 16:45 | ASOS | 66 | 39 | 37 | 29.88 | 0.00 | 7 | S | ||
| Millville | NJ | 2026-05-08 16:40 | ASOS | 64 | 39 | 39 | 29.88 | 0.00 | 5 | SSW | ||
| Millville | NJ | 2026-05-08 16:35 | ASOS | 64 | 37 | 37 | 29.88 | 0.00 | 7 | S | ||
| Millville | NJ | 2026-05-08 14:55 | ASOS | 68 | 34 | 28 | 29.90 | 0.00 | 13 | W | ||
| Millville | NJ | 2026-05-08 14:50 | ASOS | 66 | 34 | 30 | 29.90 | 0.00 | 9 | SW | ||
| Millville | NJ | 2026-05-08 11:55 | ASOS | 64 | 34 | 32 | 29.96 | 0.00 | 12 | WSW | ||
| Millville | NJ | 2026-05-08 12:40 | ASOS | 64 | 34 | 32 | 29.94 | 0.00 | 14 | W | ||
| Millville | NJ | 2026-05-08 13:05 | ASOS | 64 | 35 | 34 | 29.93 | 0.00 | 12 | WSW | ||
| Millville | NJ | 2026-05-08 13:00 | ASOS | 64 | 34 | 32 | 29.94 | 0.00 | 12 | SW | ||
| Millville | NJ | 2026-05-08 12:55 | ASOS | 64 | 34 | 32 | 29.94 | 0.00 | 10 | SW | ||
| Millville | NJ | 2026-05-08 12:54 | ASOS | 64 | 34 | 33 | 29.94 | 13 | WSW | |||
| Millville | NJ | 2026-05-08 12:50 | ASOS | 64 | 34 | 32 | 29.94 | 0.00 | 9 | W | ||
| Millville | NJ | 2026-05-08 12:45 | ASOS | 64 | 34 | 32 | 29.94 | 0.00 | 7 | SW | ||
| Millville | NJ | 2026-05-08 12:35 | ASOS | 64 | 34 | 32 | 29.94 | 0.00 | 12 | WSW | ||
| Millville | NJ | 2026-05-08 13:15 | ASOS | 64 | 34 | 32 | 29.93 | 0.00 | 7 | SSW | ||
| Millville | NJ | 2026-05-08 12:30 | ASOS | 64 | 34 | 32 | 29.95 | 0.00 | 14 | WSW | ||
| Millville | NJ | 2026-05-08 12:25 | ASOS | 63 | 34 | 34 | 29.94 | 0.00 | 15 | W | ||
| Millville | NJ | 2026-05-08 12:20 | ASOS | 63 | 34 | 34 | 29.95 | 0.00 | 9 | SSW | ||
| Millville | NJ | 2026-05-08 12:15 | ASOS | 63 | 34 | 34 | 29.96 | 0.00 | 14 | WSW | ||
| Millville | NJ | 2026-05-08 12:10 | ASOS | 63 | 34 | 34 | 29.95 | 0.00 | 8 | SSW | ||
| Millville | NJ | 2026-05-08 12:05 | ASOS | 63 | 34 | 34 | 29.95 | 0.00 | 13 | W | ||
| Millville | NJ | 2026-05-08 12:00 | ASOS | 64 | 34 | 32 | 29.96 | 0.00 | 9 | WSW | ||
| Millville | NJ | 2026-05-08 13:10 | ASOS | 64 | 34 | 32 | 29.93 | 0.00 | 13 | WSW | ||
| Millville | NJ | 2026-05-08 13:20 | ASOS | 64 | 35 | 34 | 29.93 | 0.00 | 9 | W | ||
| Millville | NJ | 2026-05-08 14:45 | ASOS | 68 | 34 | 28 | 29.91 | 0.00 | 12 | WSW | ||
| Millville | NJ | 2026-05-08 14:05 | ASOS | 66 | 35 | 32 | 29.92 | 0.00 | 9 | WSW | ||
| Millville | NJ | 2026-05-08 14:40 | ASOS | 66 | 34 | 30 | 29.92 | 0.00 | 14 | WSW | ||
| Millville | NJ | 2026-05-08 14:35 | ASOS | 66 | 34 | 30 | 29.91 | 0.00 | 10 | W | ||
| Millville | NJ | 2026-05-08 14:30 | ASOS | 66 | 34 | 30 | 29.92 | 0.00 | 9 | WSW | ||
| Millville | NJ | 2026-05-08 14:25 | ASOS | 66 | 34 | 30 | 29.92 | 0.00 | 15 | WSW | ||
| Millville | NJ | 2026-05-08 14:20 | ASOS | 66 | 34 | 30 | 29.92 | 0.00 | 14 | WSW | ||
| Millville | NJ | 2026-05-08 14:15 | ASOS | 66 | 34 | 30 | 29.92 | 0.00 | 13 | WSW | ||
| Millville | NJ | 2026-05-08 14:10 | ASOS | 66 | 34 | 30 | 29.92 | 0.00 | 13 | W | ||
| Millville | NJ | 2026-05-08 14:00 | ASOS | 66 | 34 | 30 | 29.92 | 0.00 | ||||
| Millville | NJ | 2026-05-08 13:25 | ASOS | 64 | 35 | 34 | 29.92 | 0.00 | 8 | WSW | ||
| Millville | NJ | 2026-05-08 13:55 | ASOS | 66 | 34 | 30 | 29.92 | 0.00 | 7 | WSW | ||
| Millville | NJ | 2026-05-08 13:54 | ASOS | 66 | 34 | 30 | 29.93 | 10 | WNW | |||
| Millville | NJ | 2026-05-08 13:50 | ASOS | 66 | 34 | 30 | 29.92 | 0.00 | 14 | W | ||
| Millville | NJ | 2026-05-08 13:45 | ASOS | 64 | 34 | 32 | 29.93 | 0.00 | 12 | W | ||
| Millville | NJ | 2026-05-08 13:40 | ASOS | 64 | 34 | 32 | 29.92 | 0.00 | ||||
| Millville | NJ | 2026-05-08 13:35 | ASOS | 64 | 34 | 32 | 29.93 | 0.00 | 13 | SW | ||
| Millville | NJ | 2026-05-08 13:30 | ASOS | 64 | 35 | 34 | 29.93 | 0.00 | 6 | WSW | ||
| Millville | NJ | 2026-05-08 05:45 | ASOS | 48 | 39 | 71 | 29.92 | 0.00 | 7 | NW | ||
| Millville | NJ | 2026-05-08 05:35 | ASOS | 48 | 39 | 71 | 29.92 | 0.00 | 5 | NW | ||
| Millville | NJ | 2026-05-07 17:10 | ASOS | 63 | 39 | 42 | 29.77 | 0.00 | 0 | N | ||
| Millville | NJ | 2026-05-07 20:54 | ASOS | 53 | 47 | 80 | 29.80 | 0 | N | |||
| Millville | NJ | 2026-05-07 21:20 | ASOS | 52 | 48 | 87 | 29.81 | 0.00 | 0 | N | ||
| Millville | NJ | 2026-05-07 21:15 | ASOS | 54 | 48 | 82 | 29.81 | 0.00 | 0 | N | ||
| Millville | NJ | 2026-05-07 21:10 | ASOS | 54 | 48 | 82 | 29.81 | 0.00 | 0 | N | ||
| Millville | NJ | 2026-05-07 21:05 | ASOS | 54 | 48 | 82 | 29.81 | 0.00 | 0 | N | ||
| Millville | NJ | 2026-05-07 21:00 | ASOS | 54 | 48 | 82 | 29.81 | 0.00 | 0 | N | ||
| Millville | NJ | 2026-05-07 20:55 | ASOS | 54 | 48 | 82 | 29.80 | 0.00 | 0 | N | ||
| Millville | NJ | 2026-05-07 20:50 | ASOS | 54 | 46 | 77 | 29.80 | 0.00 | 0 | N | ||
| Millville | NJ | 2026-05-07 21:30 | ASOS | 52 | 48 | 87 | 29.82 | 0.00 | 0 | N | ||
| Millville | NJ | 2026-05-07 20:45 | ASOS | 54 | 46 | 77 | 29.80 | 0.00 | 3 | SSW | ||
| Millville | NJ | 2026-05-07 20:40 | ASOS | 54 | 46 | 77 | 29.80 | 0.00 | 0 | N | ||
| Millville | NJ | 2026-05-07 20:35 | ASOS | 54 | 46 | 77 | 29.80 | 0.00 | 0 | N | ||
| Millville | NJ | 2026-05-07 20:30 | ASOS | 54 | 46 | 77 | 29.80 | 0.00 | 0 | N | ||
| Millville | NJ | 2026-05-07 20:25 | ASOS | 55 | 46 | 72 | 29.80 | 0.00 | 0 | N | ||
| Millville | NJ | 2026-05-07 20:20 | ASOS | 55 | 46 | 72 | 29.80 | 0.00 | 0 | N | ||
| Millville | NJ | 2026-05-07 20:15 | ASOS | 55 | 46 | 72 | 29.80 | 0.00 | 0 | N | ||
| Millville | NJ | 2026-05-07 21:25 | ASOS | 52 | 48 | 87 | 29.81 | 0.00 | 0 | N | ||
| Millville | NJ | 2026-05-07 21:35 | ASOS | 52 | 48 | 87 | 29.82 | 0.00 | 0 | N | ||
| Millville | NJ | 2026-05-07 20:05 | ASOS | 55 | 46 | 72 | 29.79 | 0.00 | 3 | SW | ||
| Millville | NJ | 2026-05-07 22:25 | ASOS | 52 | 46 | 82 | 29.83 | 0.00 | 6 | WSW | ||
| Millville | NJ | 2026-05-07 22:55 | ASOS | 52 | 46 | 82 | 29.83 | 0.00 | 6 | WSW | ||
| Millville | NJ | 2026-05-07 22:54 | ASOS | 51 | 46 | 83 | 29.83 | 6 | WSW | |||
| Millville | NJ | 2026-05-07 22:50 | ASOS | 52 | 46 | 82 | 29.83 | 0.00 | 6 | WSW | ||
| Millville | NJ | 2026-05-07 22:45 | ASOS | 52 | 46 | 82 | 29.83 | 0.00 | 6 | WSW | ||
| Millville | NJ | 2026-05-07 22:40 | ASOS | 52 | 46 | 82 | 29.83 | 0.00 | 7 | WSW | ||
| Millville | NJ | 2026-05-07 22:35 | ASOS | 52 | 46 | 82 | 29.83 | 0.00 | 7 | WSW | ||
| Millville | NJ | 2026-05-07 22:30 | ASOS | 52 | 46 | 82 | 29.83 | 0.00 | 6 | WSW | ||
| Millville | NJ | 2026-05-07 22:20 | ASOS | 52 | 46 | 82 | 29.83 | 0.00 | 5 | WSW | ||
| Millville | NJ | 2026-05-07 21:40 | ASOS | 52 | 48 | 87 | 29.82 | 0.00 | 0 | N | ||
| Millville | NJ | 2026-05-07 22:15 | ASOS | 52 | 46 | 82 | 29.83 | 0.00 | 5 | WSW | ||
| Millville | NJ | 2026-05-07 22:10 | ASOS | 52 | 46 | 82 | 29.83 | 0.00 | 6 | WSW | ||
| Millville | NJ | 2026-05-07 22:05 | ASOS | 52 | 46 | 82 | 29.83 | 0.00 | 5 | SW | ||
| Millville | NJ | 2026-05-07 22:00 | ASOS | 52 | 46 | 82 | 29.83 | 0.00 | 3 | SW | ||
| Millville | NJ | 2026-05-07 21:54 | ASOS | 51 | 47 | 86 | 29.83 | 3 | SW | |||
| Millville | NJ | 2026-05-07 21:50 | ASOS | 52 | 46 | 82 | 29.82 | 0.00 | 3 | SW | ||
| Millville | NJ | 2026-05-07 21:45 | ASOS | 52 | 48 | 87 | 29.82 | 0.00 | 0 | N | ||
| Millville | NJ | 2026-05-07 20:10 | ASOS | 55 | 46 | 72 | 29.79 | 0.00 | 5 | SW | ||
| Millville | NJ | 2026-05-07 20:00 | ASOS | 55 | 46 | 72 | 29.79 | 0.00 | 3 | SSW | ||
| Millville | NJ | 2026-05-07 23:05 | ASOS | 52 | 46 | 82 | 29.83 | 0.00 | 6 | WSW | ||
| Millville | NJ | 2026-05-07 17:54 | ASOS | 62 | 44 | 52 | 29.77 | 8 | WSW | |||
| Millville | NJ | 2026-05-07 18:20 | ASOS | 61 | 43 | 51 | 29.77 | 0.00 | 7 | SW | ||
| Millville | NJ | 2026-05-07 18:15 | ASOS | 61 | 43 | 51 | 29.77 | 0.00 | 7 | WSW | ||
| Millville | NJ | 2026-05-07 18:10 | ASOS | 61 | 43 | 51 | 29.77 | 0.00 | 8 | SW | ||
| Millville | NJ | 2026-05-07 18:05 | ASOS | 61 | 43 | 51 | 29.77 | 0.00 | 9 | SW | ||
| Millville | NJ | 2026-05-07 18:00 | ASOS | 61 | 43 | 51 | 29.77 | 0.00 | 7 | WSW | ||
| Millville | NJ | 2026-05-07 17:55 | ASOS | 63 | 43 | 48 | 29.78 | 0.00 | 8 | SW | ||
| Millville | NJ | 2026-05-07 17:50 | ASOS | 63 | 44 | 52 | 29.77 | 0.00 | 9 | W | ||
| Millville | NJ | 2026-05-07 18:30 | ASOS | 61 | 43 | 51 | 29.77 | 0.00 | 8 | WSW | ||
| Millville | NJ | 2026-05-07 17:45 | ASOS | 63 | 43 | 48 | 29.78 | 0.00 | 9 | WSW | ||
| Millville | NJ | 2026-05-07 17:40 | ASOS | 63 | 43 | 48 | 29.78 | 0.00 | 9 | W | ||
| Millville | NJ | 2026-05-07 17:35 | ASOS | 61 | 43 | 51 | 29.78 | 0.00 | 12 | WSW | ||
| Millville | NJ | 2026-05-07 17:30 | ASOS | 63 | 44 | 52 | 29.78 | 0.00 | 10 | W | ||
| Millville | NJ | 2026-05-07 17:25 | ASOS | 61 | 43 | 51 | 29.78 | 0.00 | 6 | WSW | ||
| Millville | NJ | 2026-05-07 17:20 | ASOS | 63 | 39 | 42 | 29.77 | 0.00 | 0 | N | ||
| Millville | NJ | 2026-05-07 17:15 | ASOS | 63 | 39 | 42 | 29.76 | 0.00 | 3 | ENE | ||
| Millville | NJ | 2026-05-07 18:25 | ASOS | 61 | 43 | 51 | 29.77 | 0.00 | 8 | WSW | ||
| Millville | NJ | 2026-05-07 18:35 | ASOS | 61 | 43 | 51 | 29.77 | 0.00 | 6 | SW | ||
| Millville | NJ | 2026-05-07 19:55 | ASOS | 55 | 46 | 72 | 29.79 | 0.00 | 0 | N | ||
| Millville | NJ | 2026-05-07 19:20 | ASOS | 57 | 44 | 63 | 29.78 | 0.00 | 5 | S | ||
| Millville | NJ | 2026-05-07 19:54 | ASOS | 56 | 47 | 72 | 29.78 | 0 | N | |||
| Millville | NJ | 2026-05-07 19:50 | ASOS | 55 | 46 | 72 | 29.79 | 0.00 | 0 | N | ||
| Millville | NJ | 2026-05-07 19:45 | ASOS | 55 | 46 | 72 | 29.79 | 0.00 | 0 | N | ||
| Millville | NJ | 2026-05-07 19:40 | ASOS | 55 | 46 | 72 | 29.79 | 0.00 | 3 | S | ||
| Millville | NJ | 2026-05-07 19:35 | ASOS | 57 | 46 | 67 | 29.79 | 0.00 | 5 | S | ||
| Millville | NJ | 2026-05-07 19:30 | ASOS | 57 | 44 | 63 | 29.79 | 0.00 | 5 | SSW | ||
| Millville | NJ | 2026-05-07 19:25 | ASOS | 57 | 44 | 63 | 29.79 | 0.00 | 6 | SW | ||
| Millville | NJ | 2026-05-07 19:15 | ASOS | 57 | 43 | 59 | 29.78 | 0.00 | 5 | SSW | ||
| Millville | NJ | 2026-05-07 18:40 | ASOS | 61 | 43 | 51 | 29.77 | 0.00 | 6 | WSW | ||
| Millville | NJ | 2026-05-07 19:10 | ASOS | 57 | 43 | 59 | 29.78 | 0.00 | 6 | SSW | ||
| Millville | NJ | 2026-05-07 19:05 | ASOS | 59 | 43 | 55 | 29.78 | 0.00 | 6 | SW | ||
| Millville | NJ | 2026-05-07 19:00 | ASOS | 59 | 43 | 55 | 29.77 | 0.00 | 5 | WSW | ||
| Millville | NJ | 2026-05-07 18:55 | ASOS | 59 | 43 | 55 | 29.77 | 0.00 | 6 | SW | ||
| Millville | NJ | 2026-05-07 18:54 | ASOS | 59 | 42 | 53 | 29.77 | 6 | SW | |||
| Millville | NJ | 2026-05-07 18:50 | ASOS | 61 | 43 | 51 | 29.77 | 0.00 | 6 | SW | ||
| Millville | NJ | 2026-05-07 18:45 | ASOS | 61 | 43 | 51 | 29.77 | 0.00 | 7 | WSW | ||
| Millville | NJ | 2026-05-07 23:00 | ASOS | 52 | 46 | 82 | 29.83 | 0.00 | 6 | WSW | ||
| Millville | NJ | 2026-05-07 23:10 | ASOS | 50 | 46 | 87 | 29.83 | 0.00 | 5 | WSW | ||
| Millville | NJ | 2026-05-08 05:30 | ASOS | 48 | 39 | 71 | 29.91 | 0.00 | 7 | NW | ||
| Millville | NJ | 2026-05-08 03:25 | ASOS | 52 | 46 | 82 | 29.85 | 0.00 | 9 | W | ||
| Millville | NJ | 2026-05-08 03:54 | ASOS | 51 | 44 | 77 | 29.87 | 9 | WNW | |||
| Millville | NJ | 2026-05-08 03:50 | ASOS | 52 | 45 | 76 | 29.86 | 0.00 | 9 | WNW | ||
| Millville | NJ | 2026-05-08 03:45 | ASOS | 52 | 45 | 76 | 29.86 | 0.00 | 9 | WNW | ||
| Millville | NJ | 2026-05-08 03:40 | ASOS | 52 | 45 | 76 | 29.86 | 0.00 | 9 | WNW | ||
| Millville | NJ | 2026-05-08 03:35 | ASOS | 52 | 45 | 76 | 29.86 | 0.00 | 10 | WNW | ||
| Millville | NJ | 2026-05-08 03:30 | ASOS | 52 | 46 | 82 | 29.85 | 0.00 | 9 | WNW | ||
| Millville | NJ | 2026-05-08 03:20 | ASOS | 52 | 46 | 82 | 29.85 | 0.00 | 7 | W | ||
| Millville | NJ | 2026-05-08 04:00 | ASOS | 52 | 45 | 76 | 29.87 | 0.00 | 10 | NW | ||
| Millville | NJ | 2026-05-08 03:15 | ASOS | 52 | 46 | 82 | 29.84 | 0.00 | 8 | W | ||
| Millville | NJ | 2026-05-08 03:10 | ASOS | 52 | 46 | 82 | 29.84 | 0.00 | 9 | W | ||
| Millville | NJ | 2026-05-08 03:05 | ASOS | 52 | 46 | 82 | 29.84 | 0.00 | 10 | W | ||
| Millville | NJ | 2026-05-08 02:54 | ASOS | 51 | 46 | 83 | 29.84 | 10 | W | |||
| Millville | NJ | 2026-05-08 02:50 | ASOS | 52 | 46 | 82 | 29.84 | 0.00 | 9 | W | ||
| Millville | NJ | 2026-05-08 02:45 | ASOS | 52 | 46 | 82 | 29.84 | 0.00 | 9 | W | ||
| Millville | NJ | 2026-05-08 02:40 | ASOS | 52 | 46 | 82 | 29.84 | 0.00 | 9 | W | ||
| Millville | NJ | 2026-05-08 03:55 | ASOS | 52 | 45 | 76 | 29.87 | 0.00 | 9 | WNW | ||
| Millville | NJ | 2026-05-08 04:05 | ASOS | 52 | 43 | 71 | 29.87 | 0.00 | 9 | NW | ||
| Millville | NJ | 2026-05-08 02:30 | ASOS | 52 | 45 | 76 | 29.84 | 0.00 | 10 | W | ||
| Millville | NJ | 2026-05-08 04:54 | ASOS | 50 | 40 | 68 | 29.90 | 7 | NW | |||
| Millville | NJ | 2026-05-08 05:25 | ASOS | 48 | 39 | 71 | 29.91 | 0.00 | 7 | NW | ||
| Millville | NJ | 2026-05-08 05:20 | ASOS | 50 | 39 | 66 | 29.91 | 0.00 | 8 | NW | ||
| Millville | NJ | 2026-05-08 05:15 | ASOS | 48 | 39 | 71 | 29.91 | 0.00 | 8 | NW | ||
| Millville | NJ | 2026-05-08 05:10 | ASOS | 50 | 39 | 66 | 29.91 | 0.00 | 7 | NW | ||
| Millville | NJ | 2026-05-08 05:05 | ASOS | 50 | 39 | 66 | 29.91 | 0.00 | 9 | NW | ||
| Millville | NJ | 2026-05-08 05:00 | ASOS | 50 | 39 | 66 | 29.90 | 0.00 | 7 | NW | ||
| Millville | NJ | 2026-05-08 04:55 | ASOS | 50 | 39 | 66 | 29.90 | 0.00 | 7 | NW | ||
| Millville | NJ | 2026-05-08 04:50 | ASOS | 50 | 39 | 66 | 29.90 | 0.00 | 7 | NW | ||
| Millville | NJ | 2026-05-08 04:10 | ASOS | 52 | 43 | 71 | 29.88 | 0.00 | 9 | NW | ||
| Millville | NJ | 2026-05-08 04:45 | ASOS | 50 | 41 | 71 | 29.90 | 0.00 | 7 | NW | ||
| Millville | NJ | 2026-05-08 04:40 | ASOS | 52 | 41 | 66 | 29.89 | 0.00 | 6 | NW | ||
| Millville | NJ | 2026-05-08 04:35 | ASOS | 52 | 41 | 66 | 29.89 | 0.00 | 7 | NW | ||
| Millville | NJ | 2026-05-08 04:30 | ASOS | 52 | 41 | 66 | 29.89 | 0.00 | 7 | NW | ||
| Millville | NJ | 2026-05-08 04:25 | ASOS | 52 | 41 | 66 | 29.89 | 0.00 | 7 | NW | ||
| Millville | NJ | 2026-05-08 04:20 | ASOS | 52 | 43 | 71 | 29.88 | 0.00 | 8 | NW | ||
| Millville | NJ | 2026-05-08 04:15 | ASOS | 52 | 43 | 71 | 29.88 | 0.00 | 7 | NW | ||
| Millville | NJ | 2026-05-08 02:35 | ASOS | 52 | 46 | 82 | 29.84 | 0.00 | 10 | W | ||
| Millville | NJ | 2026-05-08 02:25 | ASOS | 52 | 45 | 76 | 29.83 | 0.00 | 9 | W | ||
| Millville | NJ | 2026-05-07 23:15 | ASOS | 52 | 46 | 82 | 29.83 | 0.00 | 5 | WSW | ||
| Millville | NJ | 2026-05-07 23:55 | ASOS | 50 | 45 | 82 | 29.83 | 0.00 | 3 | WSW | ||
| Millville | NJ | 2026-05-08 00:25 | ASOS | 46 | 43 | 87 | 29.83 | 0.00 | 0 | N | ||
| Millville | NJ | 2026-05-08 00:20 | ASOS | 48 | 45 | 87 | 29.83 | 0.00 | 0 | N | ||
| Millville | NJ | 2026-05-08 00:15 | ASOS | 48 | 45 | 87 | 29.83 | 0.00 | 3 | WSW | ||
| Millville | NJ | 2026-05-08 00:10 | ASOS | 50 | 45 | 82 | 29.83 | 0.00 | 3 | WSW | ||
| Millville | NJ | 2026-05-08 00:05 | ASOS | 50 | 45 | 82 | 29.83 | 0.00 | 5 | WSW | ||
| Millville | NJ | 2026-05-08 00:00 | ASOS | 50 | 45 | 82 | 29.83 | 0.00 | 6 | WSW | ||
| Millville | NJ | 2026-05-07 23:54 | ASOS | 50 | 44 | 80 | 29.83 | 5 | WSW | |||
| Millville | NJ | 2026-05-08 00:35 | ASOS | 46 | 43 | 87 | 29.83 | 0.00 | 0 | N | ||
| Millville | NJ | 2026-05-07 23:50 | ASOS | 48 | 45 | 87 | 29.83 | 0.00 | 5 | WSW | ||
| Millville | NJ | 2026-05-07 23:45 | ASOS | 48 | 45 | 87 | 29.83 | 0.00 | 6 | WSW | ||
| Millville | NJ | 2026-05-07 23:40 | ASOS | 48 | 45 | 87 | 29.83 | 0.00 | 6 | WSW | ||
| Millville | NJ | 2026-05-07 23:35 | ASOS | 50 | 45 | 82 | 29.83 | 0.00 | 6 | WSW | ||
| Millville | NJ | 2026-05-07 23:30 | ASOS | 50 | 45 | 82 | 29.83 | 0.00 | 6 | WSW | ||
| Millville | NJ | 2026-05-07 23:25 | ASOS | 50 | 45 | 82 | 29.83 | 0.00 | 5 | WSW | ||
| Millville | NJ | 2026-05-07 23:20 | ASOS | 52 | 45 | 76 | 29.83 | 0.00 | 6 | WSW | ||
| Millville | NJ | 2026-05-08 00:30 | ASOS | 46 | 43 | 87 | 29.83 | 0.00 | 0 | N | ||
| Millville | NJ | 2026-05-08 00:40 | ASOS | 46 | 43 | 87 | 29.83 | 0.00 | 0 | N | ||
| Millville | NJ | 2026-05-08 02:20 | ASOS | 52 | 45 | 76 | 29.83 | 0.00 | 9 | W | ||
| Millville | NJ | 2026-05-08 01:35 | ASOS | 48 | 45 | 87 | 29.83 | 0.00 | 6 | WSW | ||
| Millville | NJ | 2026-05-08 02:15 | ASOS | 52 | 45 | 76 | 29.83 | 0.00 | 8 | W | ||
| Millville | NJ | 2026-05-08 02:10 | ASOS | 52 | 45 | 76 | 29.83 | 0.00 | 9 | W | ||
| Millville | NJ | 2026-05-08 02:05 | ASOS | 52 | 45 | 76 | 29.83 | 0.00 | 9 | W | ||
| Millville | NJ | 2026-05-08 02:00 | ASOS | 50 | 45 | 82 | 29.83 | 0.00 | 9 | W | ||
| Millville | NJ | 2026-05-08 01:54 | ASOS | 50 | 45 | 83 | 29.83 | 9 | W | |||
| Millville | NJ | 2026-05-08 01:50 | ASOS | 50 | 45 | 82 | 29.83 | 0.00 | 8 | W | ||
| Millville | NJ | 2026-05-08 01:45 | ASOS | 50 | 45 | 82 | 29.83 | 0.00 | 8 | W | ||
| Millville | NJ | 2026-05-08 01:30 | ASOS | 48 | 45 | 87 | 29.83 | 0.00 | 6 | W | ||
| Millville | NJ | 2026-05-08 00:45 | ASOS | 48 | 45 | 87 | 29.83 | 0.00 | 3 | WSW | ||
| Millville | NJ | 2026-05-08 01:25 | ASOS | 48 | 45 | 87 | 29.83 | 0.00 | 6 | W | ||
| Millville | NJ | 2026-05-08 01:20 | ASOS | 48 | 45 | 87 | 29.84 | 0.00 | 6 | W | ||
| Millville | NJ | 2026-05-08 01:15 | ASOS | 48 | 45 | 87 | 29.83 | 0.00 | 6 | WSW | ||
| Millville | NJ | 2026-05-08 01:10 | ASOS | 48 | 45 | 87 | 29.83 | 0.00 | 5 | WSW | ||
| Millville | NJ | 2026-05-08 01:05 | ASOS | 46 | 45 | 93 | 29.83 | 0.00 | 5 | WSW | ||
| Millville | NJ | 2026-05-08 00:54 | ASOS | 47 | 44 | 90 | 29.84 | 3 | W | |||
| Millville | NJ | 2026-05-08 00:50 | ASOS | 48 | 45 | 87 | 29.83 | 0.00 | 3 | WSW | ||
| Millville | NJ | 2026-05-08 16:55 | ASOS | 0.00 |
data collection created in 0.049088001251221 (queried in 0.010187) rendered in: 0.00059080123901367

